Time;durP1;ratioP1;P1;durP2;ratioP2;P2;SDS_P1;SDS_P2;PMS_P1;PMS_P2;Temp;Humidity;BMP_temperature;BMP_pressure;BME280_temperature;BME280_humidity;BME280_pressure;Samples;Min_cycle;Max_cycle;Signal;HPM_P1;HPM_P2
2022/09/20 00:00:04;;;;;;;19.42;12.05;;;9.70;99.90;;;;;;5089440;28;20036;-52
2022/09/20 00:02:30;;;;;;;20.52;14.85;;;9.70;99.90;;;;;;5089201;28;20427;-52
2022/09/20 00:04:56;;;;;;;18.17;12.75;;;9.70;99.90;;;;;;5089968;28;20154;-52
2022/09/20 00:07:22;;;;;;;22.40;15.20;;;9.70;99.90;;;;;;5088872;28;20561;-53
2022/09/20 00:09:47;;;;;;;17.27;12.55;;;9.70;99.90;;;;;;5072341;28;20032;-53
2022/09/20 00:12:13;;;;;;;18.85;11.90;;;9.70;99.90;;;;;;5089714;28;20471;-52
2022/09/20 00:14:39;;;;;;;17.38;11.93;;;9.70;99.90;;;;;;5089937;28;20027;-54
2022/09/20 00:17:04;;;;;;;18.67;11.60;;;9.70;99.90;;;;;;5070647;28;20503;-53
2022/09/20 00:19:30;;;;;;;21.58;11.63;;;9.70;99.90;;;;;;5089366;28;20024;-54
2022/09/20 00:21:56;;;;;;;18.50;11.07;;;9.70;99.90;;;;;;5089819;28;20574;-53
2022/09/20 00:24:22;;;;;;;20.40;12.43;;;9.70;99.90;;;;;;5089446;28;20085;-53
2022/09/20 00:26:48;;;;;;;16.20;10.43;;;9.70;99.90;;;;;;5086512;28;20109;-54
2022/09/20 00:29:13;;;;;;;23.30;11.90;;;9.70;99.90;;;;;;5071255;28;20016;-53
2022/09/20 00:31:41;;;;;;;18.00;10.50;;;9.70;99.90;;;;;;5089464;28;20059;-53
2022/09/20 00:36:54;;;;;;;15.93;9.52;;;9.70;99.90;;;;;;5087976;28;20035;-54
2022/09/20 00:39:20;;;;;;;18.77;9.70;;;9.80;99.90;;;;;;5071087;28;20028;-53
2022/09/20 00:41:46;;;;;;;16.75;10.82;;;9.80;99.90;;;;;;5089243;28;20091;-55
2022/09/20 00:44:49;;;;;;;19.80;11.13;;;9.80;99.90;;;;;;5089043;28;20027;-52
2022/09/20 00:47:24;;;;;;;15.93;10.60;;;9.80;99.90;;;;;;5087272;28;20024;-52
2022/09/20 00:49:55;;;;;;;18.08;10.70;;;9.70;99.90;;;;;;5087282;28;20038;-52
2022/09/20 00:52:21;;;;;;;19.67;10.35;;;9.70;99.90;;;;;;5071038;28;20069;-53
2022/09/20 00:54:48;;;;;;;17.30;10.47;;;9.70;99.90;;;;;;5089430;28;20080;-53
2022/09/20 00:57:13;;;;;;;16.45;10.00;;;9.70;99.90;;;;;;5088418;28;20040;-53
2022/09/20 00:59:45;;;;;;;15.70;9.88;;;9.70;99.90;;;;;;5070603;28;20058;-53
2022/09/20 01:02:26;;;;;;;14.48;11.13;;;9.70;99.90;;;;;;5086456;28;20089;-53
2022/09/20 01:04:53;;;;;;;20.70;11.52;;;9.70;99.90;;;;;;5085355;28;20036;-53
2022/09/20 01:07:21;;;;;;;17.92;10.25;;;9.70;99.90;;;;;;5081262;28;20052;-53
2022/09/20 01:09:47;;;;;;;18.10;9.93;;;9.70;99.90;;;;;;5069189;28;20101;-53
2022/09/20 01:12:18;;;;;;;13.77;9.25;;;9.70;99.90;;;;;;5069334;28;20020;-53
2022/09/20 01:14:46;;;;;;;16.63;8.80;;;9.70;99.90;;;;;;5069389;28;20507;-54
2022/09/20 01:17:13;;;;;;;15.25;8.82;;;9.70;99.90;;;;;;5063163;28;20536;-53
2022/09/20 01:20:06;;;;;;;15.10;7.25;;;9.70;99.90;;;;;;5092206;28;20039;-54
2022/09/20 01:22:59;;;;;;;15.48;8.95;;;9.70;99.90;;;;;;5075041;28;20036;-53
2022/09/20 01:25:53;;;;;;;15.55;8.93;;;9.60;99.90;;;;;;5093460;28;20031;-54
2022/09/20 01:28:20;;;;;;;13.63;8.55;;;9.60;99.90;;;;;;5092860;28;20479;-54
2022/09/20 01:30:49;;;;;;;12.27;8.07;;;9.60;99.90;;;;;;5092996;28;20016;-53
2022/09/20 01:33:19;;;;;;;17.02;8.80;;;9.60;99.90;;;;;;5093496;28;20683;-53
2022/09/20 01:35:48;;;;;;;15.13;7.13;;;9.60;99.90;;;;;;5075017;28;20443;-53
2022/09/20 01:38:28;;;;;;;13.52;7.95;;;9.60;99.90;;;;;;5093179;28;20086;-54
2022/09/20 01:41:06;;;;;;;18.58;8.25;;;9.60;99.90;;;;;;5092925;28;20383;-54
2022/09/20 01:43:45;;;;;;;13.82;8.50;;;9.60;99.90;;;;;;5093481;28;20024;-54
2022/09/20 01:46:31;;;;;;;16.67;7.88;;;9.60;99.90;;;;;;5092935;28;20380;-53
2022/09/20 01:49:29;;;;;;;13.63;7.07;;;9.60;99.90;;;;;;5074649;28;20028;-53
2022/09/20 01:52:14;;;;;;;15.85;7.85;;;9.60;99.90;;;;;;5074728;28;20020;-54
2022/09/20 01:55:04;;;;;;;14.75;8.10;;;9.60;99.90;;;;;;5093337;28;20032;-53
2022/09/20 01:57:44;;;;;;;12.10;7.30;;;9.50;99.90;;;;;;5092676;28;20040;-53
2022/09/20 02:00:25;;;;;;;13.13;7.22;;;9.60;99.90;;;;;;5093025;28;20016;-53
2022/09/20 02:02:59;;;;;;;12.95;7.60;;;9.60;99.90;;;;;;5092636;28;20407;-53
2022/09/20 02:06:08;;;;;;;15.07;8.23;;;9.50;99.90;;;;;;5074165;28;20052;-53
2022/09/20 02:08:40;;;;;;;16.48;9.18;;;9.60;99.90;;;;;;5066500;28;20047;-53
2022/09/20 02:11:16;;;;;;;17.85;8.15;;;9.60;99.90;;;;;;5072279;28;20032;-53
2022/09/20 02:13:51;;;;;;;16.85;8.95;;;9.60;99.90;;;;;;5072804;28;20131;-53
2022/09/20 02:16:28;;;;;;;12.43;7.97;;;9.60;99.90;;;;;;5070746;28;20154;-53
2022/09/20 02:19:31;;;;;;;13.93;8.27;;;9.60;99.90;;;;;;5072191;28;20396;-53
2022/09/20 02:22:03;;;;;;;13.93;8.88;;;9.60;99.90;;;;;;5072287;28;20527;-53
2022/09/20 02:24:38;;;;;;;15.50;10.00;;;9.60;99.90;;;;;;5072459;28;20035;-53
2022/09/20 02:27:28;;;;;;;18.33;9.80;;;9.60;99.90;;;;;;5070808;28;20028;-53
2022/09/20 02:30:24;;;;;;;15.77;9.43;;;9.60;99.90;;;;;;5071901;28;20074;-53
2022/09/20 02:33:14;;;;;;;16.30;10.15;;;9.60;99.90;;;;;;5071739;28;20043;-53
2022/09/20 02:35:51;;;;;;;16.25;9.70;;;9.60;99.90;;;;;;5072421;28;20438;-53
2022/09/20 02:38:47;;;;;;;22.70;10.87;;;9.60;99.90;;;;;;5071895;28;20395;-53
2022/09/20 02:41:34;;;;;;;17.58;9.90;;;9.60;99.90;;;;;;5071916;28;20299;-53
2022/09/20 02:44:11;;;;;;;18.85;10.38;;;9.60;99.90;;;;;;5072016;28;20031;-53
2022/09/20 02:46:58;;;;;;;19.42;10.02;;;9.60;99.90;;;;;;5071723;28;20402;-53
2022/09/20 02:49:48;;;;;;;15.48;9.32;;;9.60;99.90;;;;;;5071682;28;20035;-53
2022/09/20 02:52:20;;;;;;;20.40;10.10;;;9.60;99.90;;;;;;5072047;28;20024;-53
2022/09/20 02:55:20;;;;;;;17.60;10.60;;;9.60;99.90;;;;;;5071727;28;20598;-53
2022/09/20 02:58:21;;;;;;;20.02;11.18;;;9.60;99.90;;;;;;5071467;28;20639;-54
2022/09/20 03:01:11;;;;;;;22.17;10.75;;;9.60;99.90;;;;;;5067916;28;20071;-54
2022/09/20 03:04:08;;;;;;;17.48;9.95;;;9.60;99.90;;;;;;5071549;28;20392;-53
2022/09/20 03:06:41;;;;;;;16.50;9.68;;;9.60;99.90;;;;;;5070363;28;20020;-53
2022/09/20 03:09:16;;;;;;;16.08;9.25;;;9.60;99.90;;;;;;5091464;28;20039;-53
2022/09/20 03:12:13;;;;;;;16.45;8.48;;;9.60;99.90;;;;;;5091730;28;20212;-53
2022/09/20 03:14:51;;;;;;;12.68;8.25;;;9.60;99.90;;;;;;5091395;28;20070;-53
2022/09/20 03:17:29;;;;;;;19.15;7.57;;;9.60;99.90;;;;;;5091215;28;20055;-54
2022/09/20 03:20:06;;;;;;;;;;;9.60;99.90;;;;;;5073734;28;20076;-53
2022/09/20 03:22:57;;;;;;;14.35;7.65;;;9.60;99.90;;;;;;5091237;28;20224;-53
2022/09/20 03:26:10;;;;;;;17.00;8.95;;;9.50;99.90;;;;;;5091374;28;20462;-54
2022/09/20 03:28:56;;;;;;;13.10;8.23;;;9.60;99.90;;;;;;5029848;28;20044;-54
2022/09/20 03:31:41;;;;;;;17.80;9.57;;;9.50;99.90;;;;;;5090739;28;20032;-53
2022/09/20 03:34:38;;;;;;;18.85;9.68;;;9.50;99.90;;;;;;5091208;28;20016;-53
2022/09/20 03:37:19;;;;;;;16.05;9.50;;;9.50;99.90;;;;;;5090874;28;20060;-53
2022/09/20 03:40:22;;;;;;;16.67;9.60;;;9.50;99.90;;;;;;5090824;28;20576;-53
2022/09/20 03:43:08;;;;;;;15.95;9.77;;;9.50;99.90;;;;;;5090340;28;20043;-54
2022/09/20 03:46:12;;;;;;;19.60;9.35;;;9.60;99.90;;;;;;5091207;28;20153;-53
2022/09/20 03:48:46;;;;;;;18.25;10.30;;;9.60;99.90;;;;;;5059125;28;20047;-54
2022/09/20 03:51:25;;;;;;;16.10;10.48;;;9.60;99.90;;;;;;5090992;28;20031;-54
2022/09/20 03:54:33;;;;;;;16.42;10.88;;;9.60;99.90;;;;;;5091199;28;20233;-54
2022/09/20 03:57:11;;;;;;;20.90;11.80;;;9.50;99.90;;;;;;5072662;28;20077;-53
2022/09/20 04:00:14;;;;;;;20.42;12.13;;;9.50;99.90;;;;;;5090553;28;20024;-53
2022/09/20 04:02:58;;;;;;;16.55;10.85;;;9.50;99.90;;;;;;5090044;28;20060;-53
2022/09/20 04:05:39;;;;;;;19.20;11.45;;;9.50;99.90;;;;;;5090630;28;20069;-53
2022/09/20 04:08:28;;;;;;;19.95;12.05;;;9.50;99.90;;;;;;5090107;28;20499;-53
2022/09/20 04:11:04;;;;;;;20.58;12.02;;;9.50;99.90;;;;;;5042553;28;20040;-53
2022/09/20 04:13:51;;;;;;;20.33;13.20;;;9.50;99.90;;;;;;5072236;28;20046;-56
2022/09/20 04:16:33;;;;;;;22.17;13.52;;;9.50;99.90;;;;;;5090285;28;20097;-54
2022/09/20 04:19:06;;;;;;;24.58;16.75;;;9.50;99.90;;;;;;5071684;28;20135;-53
2022/09/20 04:21:52;;;;;;;23.08;15.35;;;9.50;99.90;;;;;;5090362;28;20022;-54
2022/09/20 04:24:27;;;;;;;28.95;18.00;;;9.60;99.90;;;;;;5072075;28;20036;-54
2022/09/20 04:27:02;;;;;;;29.50;19.63;;;9.50;99.90;;;;;;5090200;28;20028;-53
2022/09/20 04:29:51;;;;;;;34.10;22.50;;;9.50;99.90;;;;;;5089793;28;20090;-53
2022/09/20 04:32:53;;;;;;;33.17;23.23;;;9.50;99.90;;;;;;5090195;28;20099;-53
2022/09/20 04:38:20;;;;;;;32.45;23.83;;;9.50;99.90;;;;;;5089727;28;20078;-53
2022/09/20 04:41:11;;;;;;;29.60;22.65;;;9.50;99.90;;;;;;5089762;28;20031;-54
2022/09/20 04:43:57;;;;;;;31.80;20.92;;;9.50;99.90;;;;;;5090127;28;20035;-54
2022/09/20 04:46:44;;;;;;;26.85;19.35;;;9.50;99.90;;;;;;5089493;28;20031;-53
2022/09/20 04:49:34;;;;;;;27.05;19.38;;;9.50;99.90;;;;;;5089854;28;20028;-54
2022/09/20 04:52:37;;;;;;;24.65;17.70;;;9.50;99.90;;;;;;5089681;28;20020;-54
2022/09/20 04:55:08;;;;;;;23.48;16.17;;;9.50;99.90;;;;;;5089687;28;20354;-54
2022/09/20 04:58:03;;;;;;;27.42;17.70;;;9.50;99.90;;;;;;5089326;28;20487;-54
2022/09/20 05:00:42;;;;;;;24.05;16.10;;;9.50;99.90;;;;;;5089496;28;20529;-53
2022/09/20 05:03:10;;;;;;;20.35;15.23;;;9.50;99.90;;;;;;5069667;28;20108;-53
2022/09/20 05:06:04;;;;;;;21.55;16.02;;;9.50;99.90;;;;;;5069494;28;20063;-53
2022/09/20 05:08:33;;;;;;;22.08;15.75;;;9.50;99.90;;;;;;5069210;28;20056;-53
2022/09/20 05:11:17;;;;;;;23.15;16.13;;;9.50;99.90;;;;;;5069489;28;20372;-54
2022/09/20 05:14:21;;;;;;;23.70;15.68;;;9.50;99.90;;;;;;5069741;28;20021;-54
2022/09/20 05:16:59;;;;;;;22.48;16.38;;;9.50;99.90;;;;;;5069280;28;20017;-53
2022/09/20 05:19:29;;;;;;;24.63;17.70;;;9.60;99.90;;;;;;5069187;28;20029;-53
2022/09/20 05:22:01;;;;;;;20.95;16.05;;;9.60;99.90;;;;;;5069299;28;20082;-54
2022/09/20 05:24:33;;;;;;;26.70;16.83;;;9.60;99.90;;;;;;5069267;28;20039;-54
2022/09/20 05:27:11;;;;;;;22.23;15.75;;;9.60;99.90;;;;;;5069189;28;20025;-53
2022/09/20 05:29:48;;;;;;;;;;;9.70;99.90;;;;;;5051683;28;20021;-54
2022/09/20 05:32:30;;;;;;;19.98;14.93;;;9.60;99.90;;;;;;5081696;28;19995;-54
2022/09/20 05:35:11;;;;;;;25.77;17.02;;;9.70;99.90;;;;;;5089439;28;20467;-53
2022/09/20 05:38:15;;;;;;;26.58;16.77;;;9.70;99.90;;;;;;5089231;28;20481;-54
2022/09/20 05:41:06;;;;;;;24.83;17.00;;;9.70;99.90;;;;;;5089478;28;20027;-54
2022/09/20 05:44:07;;;;;;;26.10;15.02;;;9.70;99.90;;;;;;5070950;28;20024;-54
2022/09/20 05:47:10;;;;;;;25.10;14.32;;;9.70;99.90;;;;;;5083856;28;20032;-54
2022/09/20 05:50:27;;;;;;;22.33;15.10;;;9.70;99.90;;;;;;5088943;28;20073;-54
2022/09/20 05:53:25;;;;;;;23.75;16.50;;;9.70;99.90;;;;;;5029152;28;20657;-54
2022/09/20 05:56:29;;;;;;;22.45;16.48;;;9.80;99.90;;;;;;4999122;28;20038;-53
2022/09/20 05:59:14;;;;;;;19.23;14.48;;;9.80;99.90;;;;;;5088958;28;20035;-53
2022/09/20 06:01:43;;;;;;;15.32;11.27;;;9.80;99.90;;;;;;5089184;28;20028;-54
2022/09/20 06:04:28;;;;;;;16.48;11.90;;;9.70;99.90;;;;;;5071179;28;20134;-53
2022/09/20 06:07:19;;;;;;;18.55;11.68;;;9.80;99.90;;;;;;5093000;28;20541;-53
2022/09/20 06:10:12;;;;;;;16.40;10.15;;;9.80;99.90;;;;;;5092950;28;20035;-53
2022/09/20 06:13:00;;;;;;;19.42;11.88;;;9.80;99.90;;;;;;5092584;28;20139;-54
2022/09/20 06:15:43;;;;;;;17.35;11.30;;;9.80;99.90;;;;;;5093273;28;20024;-55
2022/09/20 06:18:14;;;;;;;13.20;10.68;;;9.80;99.90;;;;;;5072191;28;20040;-54
2022/09/20 06:20:46;;;;;;;16.27;10.48;;;9.80;99.90;;;;;;5072412;28;20025;-54
2022/09/20 06:23:13;;;;;;;15.10;11.32;;;9.80;99.90;;;;;;5072185;28;20029;-53
2022/09/20 06:25:55;;;;;;;19.00;13.35;;;9.80;99.90;;;;;;5072389;28;20086;-54
2022/09/20 06:28:42;;;;;;;20.25;13.77;;;9.90;99.90;;;;;;5053607;28;20048;-56
2022/09/20 06:31:10;;;;;;;15.98;10.75;;;9.90;99.90;;;;;;5074534;28;20036;-54
2022/09/20 06:33:53;;;;;;;17.65;11.30;;;10.00;99.90;;;;;;5092396;28;20035;-53
2022/09/20 06:42:01;;;;;;;14.13;9.52;;;9.90;99.90;;;;;;5092077;28;20043;-54
2022/09/20 06:44:27;;;;;;;18.75;9.95;;;9.90;99.90;;;;;;5092250;28;20025;-54
2022/09/20 06:46:53;;;;;;;11.52;7.95;;;9.90;99.90;;;;;;5091863;28;20379;-54
2022/09/20 06:49:19;;;;;;;11.57;7.60;;;9.90;99.90;;;;;;5091638;28;20020;-54
2022/09/20 06:51:46;;;;;;;13.88;8.32;;;9.90;99.90;;;;;;5091793;28;20035;-54
2022/09/20 06:54:17;;;;;;;11.18;6.47;;;9.90;99.90;;;;;;5088618;28;20029;-54
2022/09/20 06:56:44;;;;;;;9.00;6.65;;;9.90;99.90;;;;;;5076601;28;20036;-54
2022/09/20 06:59:11;;;;;;;9.75;6.80;;;9.90;99.90;;;;;;5079735;28;20036;-54
2022/09/20 07:01:37;;;;;;;8.20;6.75;;;9.90;99.90;;;;;;5089655;28;20149;-54
2022/09/20 07:04:05;;;;;;;11.07;7.32;;;9.90;99.90;;;;;;5088381;28;20031;-53
2022/09/20 07:06:31;;;;;;;10.40;8.10;;;10.00;99.90;;;;;;5089581;28;20020;-54
2022/09/20 07:08:57;;;;;;;12.13;8.27;;;10.00;99.90;;;;;;5081187;28;20035;-54
2022/09/20 07:11:23;;;;;;;11.35;8.02;;;10.10;99.90;;;;;;5091029;28;20032;-54
2022/09/20 07:13:53;;;;;;;16.40;8.32;;;10.10;99.90;;;;;;5090912;28;20091;-54
2022/09/20 07:16:20;;;;;;;12.23;8.48;;;10.10;99.90;;;;;;5088513;28;20030;-54
2022/09/20 07:18:46;;;;;;;9.80;8.23;;;10.20;99.90;;;;;;5090860;28;20036;-54
2022/09/20 07:21:15;;;;;;;14.07;8.30;;;10.30;99.90;;;;;;5090895;28;20039;-54
2022/09/20 07:23:41;;;;;;;12.25;7.55;;;10.30;99.90;;;;;;5091125;28;20043;-54
2022/09/20 07:26:15;;;;;;;11.20;7.90;;;10.40;99.90;;;;;;5090795;28;20024;-54
2022/09/20 07:28:41;;;;;;;13.43;7.70;;;10.40;99.90;;;;;;5087704;28;20039;-55
2022/09/20 07:31:06;;;;;;;12.02;7.93;;;10.30;99.90;;;;;;5090444;28;20028;-54
2022/09/20 07:33:32;;;;;;;10.68;7.15;;;10.40;99.90;;;;;;5091423;28;20031;-54
2022/09/20 07:35:57;;;;;;;13.55;7.80;;;10.40;99.90;;;;;;5081067;28;20092;-54
2022/09/20 07:38:24;;;;;;;9.52;7.10;;;10.50;99.90;;;;;;5089697;28;20503;-54
2022/09/20 07:40:58;;;;;;;11.15;6.07;;;10.50;99.90;;;;;;5088860;28;20016;-54
2022/09/20 07:43:24;;;;;;;11.15;6.70;;;10.50;99.90;;;;;;5079797;28;20115;-55
2022/09/20 07:45:54;;;;;;;10.38;6.88;;;10.50;99.90;;;;;;5074981;28;20106;-54
2022/09/20 07:48:24;;;;;;;10.55;7.47;;;10.50;99.90;;;;;;5089446;28;20496;-54
2022/09/20 07:51:01;;;;;;;16.80;9.70;;;10.60;99.90;;;;;;5090619;28;20494;-54
2022/09/20 07:53:27;;;;;;;18.27;10.55;;;10.50;99.90;;;;;;5090917;28;20392;-54
2022/09/20 07:56:05;;;;;;;23.83;14.45;;;10.60;99.90;;;;;;5090434;28;20024;-55
2022/09/20 07:58:33;;;;;;;24.83;17.23;;;10.60;99.90;;;;;;5090008;28;20096;-54
2022/09/20 08:01:01;;;;;;;19.75;13.52;;;10.60;99.90;;;;;;5071736;28;20024;-54
2022/09/20 08:03:30;;;;;;;19.42;13.32;;;10.60;99.90;;;;;;5090605;28;20111;-53
2022/09/20 08:06:04;;;;;;;19.45;14.75;;;10.70;99.90;;;;;;5089333;28;20024;-54
2022/09/20 08:08:38;;;;;;;15.38;12.48;;;10.70;99.90;;;;;;5088856;28;20044;-54
2022/09/20 08:11:12;;;;;;;16.40;14.38;;;10.60;99.90;;;;;;5090793;28;20161;-54
2022/09/20 08:13:39;;;;;;;21.02;12.75;;;10.70;99.90;;;;;;5090344;28;20028;-54
2022/09/20 08:16:07;;;;;;;14.65;11.80;;;10.80;99.90;;;;;;5090412;28;20475;-54
2022/09/20 08:18:35;;;;;;;18.50;12.60;;;10.80;99.90;;;;;;5089485;28;20055;-54
2022/09/20 08:21:09;;;;;;;16.58;11.70;;;10.80;99.90;;;;;;5087811;28;20028;-54
2022/09/20 08:23:39;;;;;;;13.90;10.80;;;10.90;99.90;;;;;;5072006;28;20118;-54
2022/09/20 08:26:06;;;;;;;15.13;10.75;;;10.80;99.90;;;;;;5090332;28;20016;-54
2022/09/20 08:28:32;;;;;;;15.02;11.65;;;10.90;99.90;;;;;;5089295;28;20403;-55
2022/09/20 08:31:09;;;;;;;21.25;12.65;;;10.90;99.90;;;;;;5089861;28;20063;-54
2022/09/20 08:33:38;;;;;;;20.58;14.50;;;11.10;99.90;;;;;;5083695;28;20024;-54
2022/09/20 08:36:05;;;;;;;16.42;10.90;;;11.60;99.90;;;;;;5083425;28;20033;-54
2022/09/20 08:38:33;;;;;;;14.10;10.00;;;12.00;99.90;;;;;;5079220;28;20032;-54
2022/09/20 08:41:12;;;;;;;15.40;10.65;;;12.40;99.90;;;;;;5084918;28;20039;-54
2022/09/20 08:44:10;;;;;;;12.32;10.05;;;12.60;99.90;;;;;;5086274;28;20039;-54
2022/09/20 08:46:41;;;;;;;12.90;8.65;;;12.70;99.90;;;;;;4999202;28;20034;-54
2022/09/20 08:49:09;;;;;;;14.18;8.80;;;12.60;99.90;;;;;;5088515;28;20050;-53
2022/09/20 08:51:40;;;;;;;10.52;8.75;;;12.50;99.90;;;;;;5062318;28;20032;-53
2022/09/20 08:54:15;;;;;;;12.57;7.30;;;12.30;99.90;;;;;;5081064;28;20623;-53
2022/09/20 08:56:43;;;;;;;11.05;6.72;;;12.20;99.90;;;;;;5068548;28;20028;-53
2022/09/20 08:59:15;;;;;;;7.00;6.07;;;12.20;99.90;;;;;;5085632;28;20067;-53
2022/09/20 09:01:42;;;;;;;10.77;6.28;;;12.00;99.90;;;;;;5079377;28;20032;-54
2022/09/20 09:04:20;;;;;;;7.35;5.75;;;11.90;99.90;;;;;;5083399;28;20103;-53
2022/09/20 09:06:51;;;;;;;10.20;6.65;;;11.90;99.90;;;;;;5074292;28;20392;-55
2022/09/20 09:09:22;;;;;;;6.95;4.03;;;11.90;99.90;;;;;;5055466;28;20029;-54
2022/09/20 09:11:49;;;;;;;5.85;3.75;;;11.90;99.90;;;;;;5084403;28;20039;-54
2022/09/20 09:17:18;;;;;;;7.97;3.78;;;11.80;99.90;;;;;;5074404;28;20079;-56
2022/09/20 09:19:52;;;;;;;5.05;3.38;;;11.80;99.90;;;;;;5071296;28;20036;-54
2022/09/20 09:22:38;;;;;;;4.85;3.38;;;11.70;99.90;;;;;;5085457;28;20032;-55
2022/09/20 09:25:11;;;;;;;7.15;3.92;;;11.70;99.90;;;;;;5081256;28;20055;-53
2022/09/20 09:27:53;;;;;;;6.22;4.15;;;11.70;99.90;;;;;;5079397;28;20056;-54
2022/09/20 09:30:25;;;;;;;5.60;4.22;;;11.70;99.90;;;;;;5079412;28;20045;-53
2022/09/20 09:33:11;;;;;;;8.07;4.13;;;11.70;99.90;;;;;;5088590;28;20028;-53
2022/09/20 09:35:37;;;;;;;7.07;4.38;;;11.80;99.90;;;;;;5086473;28;20016;-54
2022/09/20 09:38:03;;;;;;;25.13;14.90;;;11.80;99.90;;;;;;5067189;28;20043;-54
2022/09/20 09:40:30;;;;;;;17.80;10.40;;;11.80;99.90;;;;;;5088829;28;20032;-53
2022/09/20 09:43:01;;;;;;;6.95;4.00;;;11.90;99.90;;;;;;5085235;28;20024;-53
2022/09/20 09:45:34;;;;;;;10.25;4.10;;;11.90;99.90;;;;;;5090694;28;20028;-52
2022/09/20 09:48:01;;;;;;;7.35;4.32;;;11.90;99.90;;;;;;5084479;28;20020;-54
2022/09/20 09:50:30;;;;;;;7.72;4.10;;;12.00;99.90;;;;;;5082427;28;20089;-53
2022/09/20 09:53:12;;;;;;;6.10;2.67;;;12.10;99.90;;;;;;5080559;28;20036;-55
2022/09/20 09:55:53;;;;;;;6.65;2.55;;;12.20;99.90;;;;;;5081087;28;20073;-52
2022/09/20 09:58:57;;;;;;;4.75;2.13;;;12.30;99.90;;;;;;5086025;28;20087;-53
2022/09/20 10:01:42;;;;;;;3.03;1.58;;;12.40;99.90;;;;;;5077842;28;20542;-56
2022/09/20 10:04:30;;;;;;;2.92;1.50;;;12.50;99.90;;;;;;5083360;28;20789;-53
2022/09/20 10:07:38;;;;;;;2.63;1.67;;;12.70;99.90;;;;;;5082371;28;20036;-53
2022/09/20 10:10:38;;;;;;;2.50;1.60;;;13.10;99.90;;;;;;5069387;28;20075;-53
2022/09/20 10:13:33;;;;;;;5.72;1.80;;;13.40;99.90;;;;;;5080090;28;20020;-53
2022/09/20 10:16:14;;;;;;;5.38;1.60;;;13.40;99.90;;;;;;5057067;28;20071;-54
2022/09/20 10:18:55;;;;;;;3.45;1.77;;;13.40;99.90;;;;;;5082219;28;20558;-54
2022/09/20 10:21:35;;;;;;;7.07;2.85;;;13.80;99.90;;;;;;5080256;28;20042;-54
2022/09/20 10:24:07;;;;;;;3.63;2.35;;;14.50;99.90;;;;;;5083289;28;20028;-55
2022/09/20 10:26:59;;;;;;;2.38;1.70;;;14.50;99.90;;;;;;5086246;28;20116;-53
2022/09/20 10:29:50;;;;;;;4.55;1.88;;;14.50;99.90;;;;;;5050872;28;20043;-54
2022/09/20 10:32:38;;;;;;;9.90;2.10;;;14.10;99.90;;;;;;5082627;28;20024;-54
2022/09/20 10:35:19;;;;;;;7.25;2.05;;;14.20;99.90;;;;;;5076711;28;20033;-53
2022/09/20 10:38:13;;;;;;;7.53;2.70;;;13.90;99.90;;;;;;5075498;28;20028;-54
2022/09/20 10:44:07;;;;;;;5.57;3.05;;;14.50;99.90;;;;;;5086430;28;20399;-54
2022/09/20 10:46:51;;;;;;;3.63;3.10;;;14.60;99.90;;;;;;5073936;28;20067;-54
2022/09/20 10:49:33;;;;;;;7.90;4.35;;;14.40;99.90;;;;;;5071169;28;20029;-54
2022/09/20 10:52:10;;;;;;;9.35;6.07;;;14.20;99.90;;;;;;5071117;28;20032;-54
2022/09/20 10:54:42;;;;;;;9.23;5.38;;;14.10;99.90;;;;;;5051876;28;20025;-54
2022/09/20 10:57:17;;;;;;;8.48;5.15;;;13.80;99.90;;;;;;5069692;28;20056;-53
2022/09/20 10:59:58;;;;;;;8.05;4.88;;;13.70;99.90;;;;;;5071194;28;20066;-54
2022/09/20 11:02:43;;;;;;;7.22;4.93;;;13.70;99.90;;;;;;5085041;28;20024;-55
2022/09/20 11:05:54;;;;;;;7.53;4.80;;;13.70;99.90;;;;;;5091159;28;20032;-55
2022/09/20 11:08:25;;;;;;;6.85;4.45;;;13.70;99.90;;;;;;5043950;28;20040;-54
2022/09/20 11:11:04;;;;;;;7.32;3.42;;;14.10;99.90;;;;;;5071268;28;20042;-54
2022/09/20 11:13:46;;;;;;;6.88;3.75;;;14.60;99.90;;;;;;5088130;28;20023;-54
2022/09/20 11:16:14;;;;;;;6.15;3.58;;;14.80;99.90;;;;;;5088097;28;20827;-54
2022/09/20 11:19:01;;;;;;;5.28;3.42;;;14.70;99.90;;;;;;5070060;28;20464;-54
2022/09/20 11:21:35;;;;;;;7.20;4.65;;;14.70;99.90;;;;;;5088981;28;20059;-54
2022/09/20 11:24:03;;;;;;;6.50;3.58;;;14.70;99.90;;;;;;5053991;28;20028;-54
2022/09/20 11:26:40;;;;;;;5.03;3.30;;;14.90;99.90;;;;;;5090299;28;20042;-54
2022/09/20 11:29:34;;;;;;;6.82;3.63;;;15.70;99.90;;;;;;5091000;28;20027;-54
2022/09/20 11:32:41;;;;;;;8.77;3.78;;;15.70;99.90;;;;;;5090897;28;20024;-54
2022/09/20 11:35:33;;;;;;;5.95;3.17;;;15.80;99.90;;;;;;5061829;28;20364;-54
2022/09/20 11:38:23;;;;;;;3.40;2.55;;;15.60;99.90;;;;;;5071980;28;20040;-54
2022/09/20 11:41:18;;;;;;;3.55;1.85;;;15.40;99.90;;;;;;5090910;28;20101;-54
2022/09/20 11:43:46;;;;;;;6.18;1.67;;;15.10;99.90;;;;;;5089834;28;20032;-55
2022/09/20 11:46:20;;;;;;;7.40;2.03;;;14.90;99.90;;;;;;5090749;28;20053;-54
2022/09/20 11:49:12;;;;;;;2.95;1.50;;;14.70;99.90;;;;;;5090579;28;20553;-54
2022/09/20 11:52:04;;;;;;;3.88;1.58;;;14.70;99.90;;;;;;5035151;28;20529;-54
2022/09/20 11:54:54;;;;;;;2.20;1.35;;;15.00;99.90;;;;;;5090967;28;20020;-55
2022/09/20 11:57:21;;;;;;;2.03;1.30;;;15.60;99.90;;;;;;5090526;28;20040;-54
2022/09/20 11:59:56;;;;;;;5.63;1.98;;;16.00;99.90;;;;;;5090631;28;20482;-54
2022/09/20 12:02:48;;;;;;;6.07;1.13;;;16.30;99.90;;;;;;5089970;28;20040;-55
2022/09/20 12:05:36;;;;;;;1.77;1.15;;;16.60;99.90;;;;;;5090376;28;20392;-54
2022/09/20 12:08:16;;;;;;;2.60;0.98;;;16.90;99.90;;;;;;5090429;28;20445;-54
2022/09/20 12:10:42;;;;;;;3.22;1.20;;;17.40;99.90;;;;;;5090593;28;20032;-55
2022/09/20 12:13:23;;;;;;;1.85;1.13;;;17.70;99.90;;;;;;5090751;28;20108;-55
2022/09/20 12:16:06;;;;;;;2.88;1.08;;;17.80;99.90;;;;;;5090768;28;20043;-55
2022/09/20 12:18:37;;;;;;;3.33;1.55;;;17.90;99.90;;;;;;5090153;28;20089;-54
2022/09/20 12:21:09;;;;;;;2.92;1.30;;;18.10;99.90;;;;;;5090459;28;20045;-54
2022/09/20 12:23:41;;;;;;;2.08;1.13;;;18.60;99.90;;;;;;5090158;28;20020;-54
2022/09/20 12:26:14;;;;;;;2.03;0.90;;;18.40;99.90;;;;;;5090552;28;20113;-55
2022/09/20 12:28:48;;;;;;;3.00;1.05;;;18.20;98.20;;;;;;5089863;28;20023;-55
2022/09/20 12:31:20;;;;;;;3.63;0.80;;;18.20;98.00;;;;;;5090033;28;20051;-54
2022/09/20 12:34:14;;;;;;;2.67;1.05;;;17.90;99.50;;;;;;5089863;28;20038;-54
2022/09/20 12:37:04;;;;;;;1.63;1.10;;;18.00;99.90;;;;;;5090075;28;20107;-54
2022/09/20 12:39:38;;;;;;;5.28;1.45;;;18.20;99.90;;;;;;5089568;28;20144;-55
2022/09/20 12:42:10;;;;;;;3.60;0.82;;;18.40;99.90;;;;;;5089902;28;20028;-55
2022/09/20 12:44:56;;;;;;;3.03;1.17;;;18.50;97.70;;;;;;5090032;28;20671;-54
2022/09/20 12:47:33;;;;;;;4.85;1.70;;;18.60;98.20;;;;;;5089558;28;20180;-54
2022/09/20 12:53:02;;;;;;;3.83;1.90;;;17.60;99.20;;;;;;5089761;28;20079;-54
2022/09/20 12:55:28;;;;;;;3.53;1.40;;;17.40;99.70;;;;;;5089750;28;20028;-53
2022/09/20 12:58:31;;;;;;;5.80;0.97;;;17.00;98.70;;;;;;5089558;28;20119;-53
2022/09/20 13:00:59;;;;;;;3.17;1.17;;;17.00;98.70;;;;;;5087354;28;20764;-53
2022/09/20 13:03:27;;;;;;;1.88;1.00;;;17.00;99.90;;;;;;5069561;28;20029;-53
2022/09/20 13:08:38;;;;;;;3.38;1.33;;;16.70;99.90;;;;;;5076627;28;20048;-53
2022/09/20 13:11:16;;;;;;;2.83;1.20;;;16.50;99.90;;;;;;5078573;28;20111;-53
2022/09/20 13:13:53;;;;;;;4.00;1.55;;;16.40;99.90;;;;;;5074386;28;20472;-53
2022/09/20 13:16:30;;;;;;;4.32;1.67;;;16.60;99.90;;;;;;5064293;28;20036;-52
2022/09/20 13:19:27;;;;;;;2.65;1.30;;;16.50;99.90;;;;;;5081150;28;20024;-53
2022/09/20 13:21:59;;;;;;;4.47;1.52;;;16.50;99.90;;;;;;5082505;28;20017;-53
2022/09/20 13:24:27;;;;;;;2.00;1.00;;;16.80;99.90;;;;;;5082223;28;20123;-52
2022/09/20 13:26:59;;;;;;;3.63;1.17;;;16.80;99.90;;;;;;5077570;28;20044;-52
2022/09/20 13:29:39;;;;;;;2.40;1.27;;;16.70;99.10;;;;;;5082776;28;20032;-53
2022/09/20 13:32:22;;;;;;;2.50;1.38;;;16.70;99.90;;;;;;5083477;28;20061;-52
2022/09/20 13:35:17;;;;;;;3.15;1.35;;;16.60;99.80;;;;;;5080606;28;20120;-54
2022/09/20 13:37:54;;;;;;;3.15;1.00;;;16.90;99.80;;;;;;5072569;28;20097;-54
2022/09/20 13:40:43;;;;;;;1.38;0.80;;;16.90;99.90;;;;;;5071502;28;20043;-54
2022/09/20 13:43:24;;;;;;;2.10;1.10;;;16.90;99.90;;;;;;5071609;28;20147;-54
2022/09/20 13:45:58;;;;;;;2.88;1.08;;;16.90;99.10;;;;;;5071397;28;20024;-54
2022/09/20 13:48:28;;;;;;;2.55;1.30;;;16.60;99.10;;;;;;5091733;28;20123;-53
2022/09/20 13:50:55;;;;;;;6.65;1.98;;;16.60;99.60;;;;;;5092693;28;20426;-54
2022/09/20 13:53:23;;;;;;;6.03;1.45;;;16.70;99.90;;;;;;5092951;28;20085;-53
2022/09/20 13:55:49;;;;;;;4.22;1.40;;;16.80;99.90;;;;;;5092368;28;20603;-54
2022/09/20 13:58:17;;;;;;;3.03;1.48;;;16.90;99.90;;;;;;5090709;28;20036;-54
2022/09/20 14:00:53;;;;;;;4.97;1.63;;;17.00;99.90;;;;;;5089999;28;20028;-54
2022/09/20 14:03:20;;;;;;;3.92;1.27;;;17.10;99.90;;;;;;5091634;28;20119;-54